Historique des mesures à Cassis (13260), France
Quotidien Résumé Fevrier 10, 2017 Unités:  Métrique    US   Métrique/US
« Précédent (Jour)
Suivant (Jour) »
Quotidien Hebdomadaire Mensuel Annuel Période au choix
  Maximum: Minimum: Moyenne:
Température: TemperatureC °C 7.9 °C 9.8 °C
Point de rosée: DewpointC °C 4.1 °C 5.3 °C
Humidité: Humidity % 68 % 70 %
Vitesse du vent: 0 km/h 0 km/h 0.8 km/h
Rafales: 0 km/h - -
Vent:- - South
Pression: PressurehPa hPa 1013.8 hPa -
Précipitations: 0.0 mm    
Historical Graphs
 
 
Mesures pour : Fevrier 10, 2017
Heure Temperature Point de rosée Pression Vent Vitesse du vent Rafales Humidité Pluie (par heure) Conditions
TemperatureC °C DewpointC °C PressurehPa hPa Calm     Humidity % HourlyPrecipMM mm SoftwareType W/m2
00:11 8.9 °C 5.1 °C 1014.4 hPa Calm     77 % 0.0 mm open2300-1.11 W/m2
03:10 8.6 °C 4.9 °C 1014.1 hPa Calm   10.3 km/h 78 % 0.0 mm open2300-1.11 W/m2
04:11 8.4 °C 4.8 °C 1014.1 hPa Calm     78 % 0.0 mm open2300-1.11 W/m2
05:10 8.2 °C 4.4 °C 1013.8 hPa Calm     77 % 0.0 mm open2300-1.11 W/m2
06:11 8.0 °C 4.4 °C 1014.1 hPa Calm     78 % 0.0 mm open2300-1.11 W/m2
07:10 7.9 °C 4.1 °C 1014.1 hPa Calm     77 % 0.0 mm open2300-1.11 W/m2
08:11 7.9 °C 4.3 °C 1014.1 hPa Calm     78 % 0.0 mm open2300-1.11 W/m2
09:10 8.7 °C 4.9 °C 1015.1 hPa Calm     77 % 0.0 mm open2300-1.11 W/m2
10:11 9.8 °C 5.6 °C 1015.5 hPa Calm     75 % 0.0 mm open2300-1.11 W/m2
11:10 10.9 °C 6.1 °C 1015.5 hPa ENE 6.4 km/h 6.4 km/h 72 % 0.0 mm open2300-1.11 W/m2
12:11 11.3 °C 6.3 °C 1015.5 hPa Calm   4.2 km/h 71 % 0.0 mm open2300-1.11 W/m2
13:10 12.3 °C 7.0 °C 1015.5 hPa Calm     70 % 0.0 mm open2300-1.11 W/m2
14:11 12.6 °C 7.1 °C 1015.1 hPa Calm     69 % 0.0 mm open2300-1.11 W/m2
15:10 13.0 °C 7.5 °C 1015.1 hPa Calm   5.6 km/h 69 % 0.0 mm open2300-1.11 W/m2
16:11 13.3 °C 7.5 °C 1015.1 hPa Calm   3.4 km/h 68 % 0.0 mm open2300-1.11 W/m2
17:10 12.4 °C 6.7 °C 1015.1 hPa Calm     68 % 0.0 mm open2300-1.11 W/m2
18:11 11.5 °C 6.0 °C 1015.5 hPa Calm     69 % 0.0 mm open2300-1.11 W/m2
19:10 11.0 °C 5.8 °C 1015.5 hPa Calm     70 % 0.0 mm open2300-1.11 W/m2
20:11 10.6 °C 5.4 °C 1015.5 hPa Calm     70 % 0.0 mm open2300-1.11 W/m2
21:10 10.3 °C 5.1 °C 1015.8 hPa WNW 4.2 km/h 4.2 km/h 70 % 0.0 mm open2300-1.11 W/m2
22:11 10.1 °C 5.1 °C 1016.1 hPa WSW 5.6 km/h 8 km/h 71 % 0.0 mm open2300-1.11 W/m2
23:10 9.8 °C 4.8 °C 1016.5 hPa ESE 3.4 km/h 3.4 km/h 71 % 0.0 mm open2300-1.11 W/m2
Observations météo à CASSIS
WU-History script by Weather Underground - 1 mb